createdAt,value
2023-05-25T00:07:47.262Z,1024.46
2023-05-25T00:17:52.834Z,1024.49
2023-05-25T00:27:58.218Z,1024.48
2023-05-25T00:38:03.376Z,1024.45
2023-05-25T00:48:09.132Z,1024.49
2023-05-25T00:58:14.256Z,1024.42
2023-05-25T01:08:19.545Z,1024.42
2023-05-25T01:18:24.807Z,1024.43
2023-05-25T01:28:30.218Z,1024.51
2023-05-25T01:38:35.632Z,1024.55
2023-05-25T01:48:40.693Z,1024.54
2023-05-25T01:58:46.000Z,1024.55
2023-05-25T02:08:51.474Z,1024.42
2023-05-25T02:18:57.117Z,1024.40
2023-05-25T02:29:02.647Z,1024.46
2023-05-25T02:39:08.205Z,1024.51
2023-05-25T02:49:13.693Z,1024.49
2023-05-25T02:59:19.035Z,1024.50
2023-05-25T03:09:23.992Z,1024.53
2023-05-25T03:19:29.773Z,1024.57
2023-05-25T03:29:35.288Z,1024.60
2023-05-25T03:39:40.728Z,1024.59
2023-05-25T03:49:46.463Z,1024.70
2023-05-25T03:59:51.757Z,1024.75
2023-05-25T04:09:56.860Z,1024.80
2023-05-25T04:20:02.205Z,1024.88
2023-05-25T04:30:07.812Z,1024.98
2023-05-25T04:40:13.536Z,1025.01
2023-05-25T04:50:18.875Z,1025.09
2023-05-25T05:00:24.073Z,1025.05
2023-05-25T05:10:29.764Z,1024.98
2023-05-25T05:20:34.935Z,1025.05
2023-05-25T05:30:40.513Z,1025.06
2023-05-25T05:40:45.835Z,1025.18
2023-05-25T05:50:51.189Z,1025.29
2023-05-25T06:00:56.716Z,1025.33
2023-05-25T06:11:02.386Z,1025.47
2023-05-25T06:21:07.812Z,1025.48
2023-05-25T06:31:13.520Z,1025.53
2023-05-25T06:41:18.682Z,1025.60
2023-05-25T06:51:24.365Z,1025.59
2023-05-25T07:01:29.593Z,1025.54
2023-05-25T07:11:35.160Z,1025.57
2023-05-25T07:21:40.484Z,1025.58
2023-05-25T07:31:45.738Z,1025.57
2023-05-25T07:41:51.461Z,1025.71
2023-05-25T07:51:57.209Z,1025.72
2023-05-25T08:02:03.247Z,1025.75
2023-05-25T08:12:30.774Z,1025.81
2023-05-25T08:22:19.516Z,1025.79
2023-05-25T08:32:25.030Z,1025.83
2023-05-25T08:42:30.945Z,1025.90
2023-05-25T08:52:36.224Z,1025.84
2023-05-25T09:02:41.562Z,1025.85
2023-05-25T09:12:46.812Z,1025.88
2023-05-25T09:22:52.295Z,1025.98
2023-05-25T09:32:57.732Z,1025.96
2023-05-25T09:43:03.012Z,1025.90
2023-05-25T09:53:08.353Z,1026.01
2023-05-25T10:03:13.978Z,1025.96
2023-05-25T10:13:19.733Z,1025.96
2023-05-25T10:23:25.473Z,1026.01
2023-05-25T10:43:36.405Z,1025.97
2023-05-25T10:53:42.230Z,1025.92
2023-05-25T11:03:47.749Z,1025.92
2023-05-25T11:13:53.498Z,1025.99
2023-05-25T11:23:58.586Z,1025.91
2023-05-25T11:34:04.343Z,1025.98
2023-05-25T11:44:09.883Z,1025.93
2023-05-25T11:54:15.687Z,1025.87
2023-05-25T12:04:24.037Z,1025.87
2023-05-25T12:14:30.739Z,1025.78
2023-05-25T12:24:36.792Z,1025.68
2023-05-25T12:34:41.947Z,1025.69
2023-05-25T12:44:47.474Z,1025.78
2023-05-25T12:54:52.762Z,1025.75
2023-05-25T13:04:58.730Z,1025.66
2023-05-25T13:15:04.623Z,1025.61
2023-05-25T13:25:10.041Z,1025.60
2023-05-25T13:35:15.495Z,1025.52
2023-05-25T13:45:21.177Z,1025.59
2023-05-25T13:55:26.390Z,1025.54
2023-05-25T14:05:31.934Z,1025.50
2023-05-25T14:15:37.678Z,1025.42
2023-05-25T14:25:43.417Z,1025.42
2023-05-25T14:35:49.167Z,1025.38
2023-05-25T14:45:54.650Z,1025.33
2023-05-25T14:56:00.069Z,1025.28
2023-05-25T15:06:05.587Z,1025.25
2023-05-25T15:16:11.261Z,1025.15
2023-05-25T15:26:17.072Z,1025.17
2023-05-25T15:36:22.497Z,1025.21
2023-05-25T15:46:28.309Z,1025.18
2023-05-25T15:56:33.711Z,1025.16
2023-05-25T16:06:39.018Z,1025.09
2023-05-25T16:16:44.551Z,1025.10
2023-05-25T16:26:49.998Z,1025.05
2023-05-25T16:36:55.635Z,1025.06
2023-05-25T16:47:00.991Z,1025.02
2023-05-25T16:57:06.533Z,1024.95
2023-05-25T17:07:11.893Z,1024.91
2023-05-25T17:17:17.006Z,1024.94
2023-05-25T17:27:22.360Z,1024.92
2023-05-25T17:37:27.927Z,1024.98
2023-05-25T17:47:33.069Z,1025.04
2023-05-25T17:57:38.802Z,1025.12
2023-05-25T18:07:44.141Z,1025.16
2023-05-25T18:17:49.811Z,1025.22
2023-05-25T18:27:54.712Z,1025.23
2023-05-25T18:38:00.255Z,1025.33
2023-05-25T18:48:06.011Z,1025.38
2023-05-25T18:58:11.353Z,1025.46
2023-05-25T19:08:16.897Z,1025.60
2023-05-25T19:18:22.352Z,1025.59
2023-05-25T19:28:27.982Z,1025.60
2023-05-25T19:38:41.133Z,1025.71
2023-05-25T19:48:43.772Z,1025.68
2023-05-25T19:58:49.216Z,1025.74
2023-05-25T20:08:54.358Z,1025.84
2023-05-25T20:18:59.512Z,1025.95
2023-05-25T20:29:04.989Z,1026.01
2023-05-25T20:39:10.386Z,1026.07
2023-05-25T20:49:15.726Z,1026.10
2023-05-25T20:59:21.295Z,1026.09
2023-05-25T21:09:26.608Z,1026.15
2023-05-25T21:19:31.645Z,1026.12
2023-05-25T21:29:37.176Z,1026.18
2023-05-25T21:39:42.132Z,1026.19
2023-05-25T21:49:47.399Z,1026.20
2023-05-25T21:59:52.702Z,1026.31
2023-05-25T22:09:57.948Z,1026.42
2023-05-25T22:30:11.216Z,1026.51
2023-05-25T22:40:16.687Z,1026.58
2023-05-25T22:50:22.206Z,1026.61
2023-05-25T23:00:27.571Z,1026.66
2023-05-25T23:10:33.025Z,1026.68
2023-05-25T23:20:38.245Z,1026.73
2023-05-25T23:30:43.428Z,1026.68
2023-05-25T23:40:48.468Z,1026.65
2023-05-25T23:50:53.731Z,1026.61
